sensor_id;sensor_type;location;lat;lon;timestamp;P1;durP1;ratioP1;P2;durP2;ratioP2
65033;SDS011;51601;51.356;12.458;2023-04-23T00:01:51;10.00;;;5.40;;
65033;SDS011;51601;51.356;12.458;2023-04-23T00:06:12;10.20;;;5.38;;
65033;SDS011;51601;51.356;12.458;2023-04-23T00:10:33;11.95;;;5.80;;
65033;SDS011;51601;51.356;12.458;2023-04-23T00:14:53;9.47;;;5.17;;
65033;SDS011;51601;51.356;12.458;2023-04-23T00:19:12;10.00;;;5.30;;
65033;SDS011;51601;51.356;12.458;2023-04-23T00:23:30;12.40;;;5.78;;
65033;SDS011;51601;51.356;12.458;2023-04-23T00:27:48;12.27;;;5.67;;
65033;SDS011;51601;51.356;12.458;2023-04-23T00:32:08;11.48;;;6.00;;
65033;SDS011;51601;51.356;12.458;2023-04-23T00:36:28;9.18;;;5.22;;
65033;SDS011;51601;51.356;12.458;2023-04-23T00:40:46;11.00;;;6.40;;
65033;SDS011;51601;51.356;12.458;2023-04-23T00:45:04;10.87;;;5.93;;
65033;SDS011;51601;51.356;12.458;2023-04-23T00:49:27;10.45;;;5.32;;
65033;SDS011;51601;51.356;12.458;2023-04-23T00:53:46;9.52;;;5.38;;
65033;SDS011;51601;51.356;12.458;2023-04-23T00:58:04;11.80;;;5.43;;
65033;SDS011;51601;51.356;12.458;2023-04-23T01:02:22;11.35;;;5.45;;
65033;SDS011;51601;51.356;12.458;2023-04-23T01:06:45;11.23;;;5.75;;
65033;SDS011;51601;51.356;12.458;2023-04-23T01:11:05;10.60;;;5.37;;
65033;SDS011;51601;51.356;12.458;2023-04-23T01:15:22;8.73;;;5.15;;
65033;SDS011;51601;51.356;12.458;2023-04-23T01:19:41;11.00;;;5.00;;
65033;SDS011;51601;51.356;12.458;2023-04-23T01:24:00;7.70;;;4.22;;
65033;SDS011;51601;51.356;12.458;2023-04-23T01:28:20;13.20;;;4.80;;
65033;SDS011;51601;51.356;12.458;2023-04-23T01:32:39;11.13;;;5.43;;
65033;SDS011;51601;51.356;12.458;2023-04-23T01:36:57;10.52;;;5.47;;
65033;SDS011;51601;51.356;12.458;2023-04-23T01:41:20;11.53;;;5.33;;
65033;SDS011;51601;51.356;12.458;2023-04-23T01:45:39;9.82;;;5.03;;
65033;SDS011;51601;51.356;12.458;2023-04-23T01:49:57;9.30;;;5.35;;
65033;SDS011;51601;51.356;12.458;2023-04-23T01:54:16;9.53;;;5.30;;
65033;SDS011;51601;51.356;12.458;2023-04-23T01:58:35;9.30;;;4.82;;
65033;SDS011;51601;51.356;12.458;2023-04-23T02:02:55;10.77;;;4.88;;
65033;SDS011;51601;51.356;12.458;2023-04-23T02:07:13;7.40;;;4.10;;
65033;SDS011;51601;51.356;12.458;2023-04-23T02:11:37;8.43;;;4.50;;
65033;SDS011;51601;51.356;12.458;2023-04-23T02:16:03;8.02;;;4.30;;
65033;SDS011;51601;51.356;12.458;2023-04-23T02:20:27;8.05;;;4.20;;
65033;SDS011;51601;51.356;12.458;2023-04-23T02:24:51;8.20;;;4.20;;
65033;SDS011;51601;51.356;12.458;2023-04-23T02:29:16;8.25;;;4.07;;
65033;SDS011;51601;51.356;12.458;2023-04-23T02:33:42;8.60;;;4.35;;
65033;SDS011;51601;51.356;12.458;2023-04-23T02:38:08;8.43;;;3.93;;
65033;SDS011;51601;51.356;12.458;2023-04-23T02:42:33;8.48;;;4.40;;
65033;SDS011;51601;51.356;12.458;2023-04-23T02:46:59;8.98;;;4.15;;
65033;SDS011;51601;51.356;12.458;2023-04-23T02:51:25;9.00;;;4.43;;
65033;SDS011;51601;51.356;12.458;2023-04-23T02:55:49;9.33;;;5.00;;
65033;SDS011;51601;51.356;12.458;2023-04-23T03:00:13;8.55;;;4.90;;
65033;SDS011;51601;51.356;12.458;2023-04-23T03:04:38;9.18;;;5.00;;
65033;SDS011;51601;51.356;12.458;2023-04-23T03:09:04;8.03;;;4.83;;
65033;SDS011;51601;51.356;12.458;2023-04-23T03:13:31;8.88;;;4.65;;
65033;SDS011;51601;51.356;12.458;2023-04-23T03:17:55;9.35;;;4.75;;
65033;SDS011;51601;51.356;12.458;2023-04-23T03:22:19;8.13;;;4.47;;
65033;SDS011;51601;51.356;12.458;2023-04-23T03:26:45;8.55;;;4.85;;
65033;SDS011;51601;51.356;12.458;2023-04-23T03:31:09;8.50;;;4.70;;
65033;SDS011;51601;51.356;12.458;2023-04-23T03:35:34;8.38;;;4.68;;
65033;SDS011;51601;51.356;12.458;2023-04-23T03:40:02;8.87;;;4.33;;
65033;SDS011;51601;51.356;12.458;2023-04-23T03:44:35;8.30;;;4.50;;
65033;SDS011;51601;51.356;12.458;2023-04-23T03:48:59;9.30;;;4.72;;
65033;SDS011;51601;51.356;12.458;2023-04-23T03:53:23;10.20;;;5.13;;
65033;SDS011;51601;51.356;12.458;2023-04-23T03:58:07;7.68;;;4.40;;
65033;SDS011;51601;51.356;12.458;2023-04-23T04:02:39;8.65;;;4.45;;
65033;SDS011;51601;51.356;12.458;2023-04-23T04:07:03;9.73;;;5.10;;
65033;SDS011;51601;51.356;12.458;2023-04-23T04:11:28;9.10;;;4.95;;
65033;SDS011;51601;51.356;12.458;2023-04-23T04:15:52;8.93;;;4.70;;
65033;SDS011;51601;51.356;12.458;2023-04-23T04:20:18;8.98;;;4.88;;
65033;SDS011;51601;51.356;12.458;2023-04-23T04:24:42;8.77;;;4.73;;
65033;SDS011;51601;51.356;12.458;2023-04-23T04:29:08;8.13;;;4.45;;
65033;SDS011;51601;51.356;12.458;2023-04-23T04:33:33;9.20;;;4.57;;
65033;SDS011;51601;51.356;12.458;2023-04-23T04:38:00;10.20;;;5.77;;
65033;SDS011;51601;51.356;12.458;2023-04-23T04:42:24;9.52;;;4.40;;
65033;SDS011;51601;51.356;12.458;2023-04-23T04:46:48;8.75;;;4.57;;
65033;SDS011;51601;51.356;12.458;2023-04-23T04:51:12;8.27;;;4.10;;
65033;SDS011;51601;51.356;12.458;2023-04-23T04:55:37;9.55;;;4.05;;
65033;SDS011;51601;51.356;12.458;2023-04-23T05:00:17;8.13;;;4.30;;
65033;SDS011;51601;51.356;12.458;2023-04-23T05:04:43;9.10;;;4.72;;
65033;SDS011;51601;51.356;12.458;2023-04-23T05:09:07;7.57;;;4.07;;
65033;SDS011;51601;51.356;12.458;2023-04-23T05:13:35;9.20;;;5.10;;
65033;SDS011;51601;51.356;12.458;2023-04-23T05:18:02;8.43;;;4.63;;
65033;SDS011;51601;51.356;12.458;2023-04-23T05:22:27;9.23;;;4.80;;
65033;SDS011;51601;51.356;12.458;2023-04-23T05:26:51;8.30;;;4.68;;
65033;SDS011;51601;51.356;12.458;2023-04-23T05:31:17;9.27;;;4.60;;
65033;SDS011;51601;51.356;12.458;2023-04-23T05:35:43;8.60;;;4.27;;
65033;SDS011;51601;51.356;12.458;2023-04-23T05:40:08;8.50;;;3.65;;
65033;SDS011;51601;51.356;12.458;2023-04-23T05:44:32;7.30;;;3.80;;
65033;SDS011;51601;51.356;12.458;2023-04-23T05:48:58;7.40;;;3.70;;
65033;SDS011;51601;51.356;12.458;2023-04-23T05:53:22;7.37;;;3.43;;
65033;SDS011;51601;51.356;12.458;2023-04-23T05:57:42;7.03;;;3.40;;
65033;SDS011;51601;51.356;12.458;2023-04-23T06:02:07;7.40;;;3.65;;
65033;SDS011;51601;51.356;12.458;2023-04-23T06:06:34;8.00;;;4.30;;
65033;SDS011;51601;51.356;12.458;2023-04-23T06:10:58;8.13;;;3.90;;
65033;SDS011;51601;51.356;12.458;2023-04-23T06:15:23;7.60;;;3.63;;
65033;SDS011;51601;51.356;12.458;2023-04-23T06:19:48;7.73;;;3.07;;
65033;SDS011;51601;51.356;12.458;2023-04-23T06:24:15;7.22;;;3.50;;
65033;SDS011;51601;51.356;12.458;2023-04-23T06:28:40;6.35;;;3.22;;
65033;SDS011;51601;51.356;12.458;2023-04-23T06:33:30;6.38;;;3.15;;
65033;SDS011;51601;51.356;12.458;2023-04-23T06:37:55;7.07;;;3.10;;
65033;SDS011;51601;51.356;12.458;2023-04-23T06:42:21;6.07;;;2.70;;
65033;SDS011;51601;51.356;12.458;2023-04-23T06:47:05;6.18;;;2.80;;
65033;SDS011;51601;51.356;12.458;2023-04-23T06:51:29;7.37;;;2.63;;
65033;SDS011;51601;51.356;12.458;2023-04-23T06:55:53;6.30;;;2.80;;
65033;SDS011;51601;51.356;12.458;2023-04-23T07:00:19;7.10;;;3.10;;
65033;SDS011;51601;51.356;12.458;2023-04-23T07:04:43;6.03;;;2.80;;
65033;SDS011;51601;51.356;12.458;2023-04-23T07:09:08;5.70;;;2.83;;
65033;SDS011;51601;51.356;12.458;2023-04-23T07:13:32;6.03;;;2.88;;
65033;SDS011;51601;51.356;12.458;2023-04-23T07:17:57;5.38;;;2.50;;
65033;SDS011;51601;51.356;12.458;2023-04-23T07:22:22;6.63;;;2.80;;
65033;SDS011;51601;51.356;12.458;2023-04-23T07:26:46;5.10;;;2.30;;
65033;SDS011;51601;51.356;12.458;2023-04-23T07:31:11;5.68;;;2.45;;
65033;SDS011;51601;51.356;12.458;2023-04-23T07:35:36;6.10;;;2.87;;
65033;SDS011;51601;51.356;12.458;2023-04-23T07:40:00;5.20;;;2.20;;
65033;SDS011;51601;51.356;12.458;2023-04-23T07:44:26;6.32;;;2.53;;
65033;SDS011;51601;51.356;12.458;2023-04-23T07:48:50;5.60;;;2.57;;
65033;SDS011;51601;51.356;12.458;2023-04-23T07:53:16;6.25;;;2.50;;
65033;SDS011;51601;51.356;12.458;2023-04-23T07:57:40;5.90;;;2.75;;
65033;SDS011;51601;51.356;12.458;2023-04-23T08:02:05;5.47;;;2.30;;
65033;SDS011;51601;51.356;12.458;2023-04-23T08:06:29;5.60;;;2.50;;
65033;SDS011;51601;51.356;12.458;2023-04-23T08:10:57;6.28;;;2.30;;
65033;SDS011;51601;51.356;12.458;2023-04-23T08:15:21;5.15;;;2.08;;
65033;SDS011;51601;51.356;12.458;2023-04-23T08:19:45;5.50;;;2.10;;
65033;SDS011;51601;51.356;12.458;2023-04-23T08:24:09;5.38;;;2.22;;
65033;SDS011;51601;51.356;12.458;2023-04-23T08:28:35;5.40;;;2.53;;
65033;SDS011;51601;51.356;12.458;2023-04-23T08:33:00;5.67;;;2.70;;
65033;SDS011;51601;51.356;12.458;2023-04-23T08:37:24;5.82;;;2.33;;
65033;SDS011;51601;51.356;12.458;2023-04-23T08:41:53;5.47;;;2.10;;
65033;SDS011;51601;51.356;12.458;2023-04-23T08:46:19;4.63;;;2.03;;
65033;SDS011;51601;51.356;12.458;2023-04-23T08:50:45;4.93;;;2.10;;
65033;SDS011;51601;51.356;12.458;2023-04-23T08:55:09;4.88;;;2.10;;
65033;SDS011;51601;51.356;12.458;2023-04-23T08:59:36;5.32;;;1.80;;
65033;SDS011;51601;51.356;12.458;2023-04-23T09:04:03;4.97;;;2.03;;
65033;SDS011;51601;51.356;12.458;2023-04-23T09:08:28;4.97;;;2.03;;
65033;SDS011;51601;51.356;12.458;2023-04-23T09:12:56;5.15;;;1.95;;
65033;SDS011;51601;51.356;12.458;2023-04-23T09:17:20;4.90;;;2.20;;
65033;SDS011;51601;51.356;12.458;2023-04-23T09:21:47;5.30;;;2.08;;
65033;SDS011;51601;51.356;12.458;2023-04-23T09:26:12;5.80;;;2.17;;
65033;SDS011;51601;51.356;12.458;2023-04-23T09:30:42;4.90;;;2.20;;
65033;SDS011;51601;51.356;12.458;2023-04-23T09:35:10;4.80;;;2.10;;
65033;SDS011;51601;51.356;12.458;2023-04-23T09:39:38;5.47;;;2.10;;
65033;SDS011;51601;51.356;12.458;2023-04-23T09:44:02;4.80;;;1.90;;
65033;SDS011;51601;51.356;12.458;2023-04-23T09:48:39;4.50;;;2.07;;
65033;SDS011;51601;51.356;12.458;2023-04-23T09:53:04;4.90;;;1.90;;
65033;SDS011;51601;51.356;12.458;2023-04-23T09:57:30;5.30;;;2.25;;
65033;SDS011;51601;51.356;12.458;2023-04-23T10:02:00;4.97;;;2.20;;
65033;SDS011;51601;51.356;12.458;2023-04-23T10:06:31;5.60;;;2.22;;
65033;SDS011;51601;51.356;12.458;2023-04-23T10:11:10;5.13;;;2.22;;
65033;SDS011;51601;51.356;12.458;2023-04-23T10:15:43;5.03;;;2.15;;
65033;SDS011;51601;51.356;12.458;2023-04-23T10:20:09;4.67;;;1.90;;
65033;SDS011;51601;51.356;12.458;2023-04-23T10:24:35;4.53;;;1.90;;
65033;SDS011;51601;51.356;12.458;2023-04-23T10:29:02;3.88;;;1.60;;
65033;SDS011;51601;51.356;12.458;2023-04-23T10:33:32;3.80;;;1.60;;
65033;SDS011;51601;51.356;12.458;2023-04-23T10:38:16;4.38;;;1.75;;
65033;SDS011;51601;51.356;12.458;2023-04-23T10:42:41;5.22;;;2.05;;
65033;SDS011;51601;51.356;12.458;2023-04-23T10:47:10;4.43;;;1.70;;
65033;SDS011;51601;51.356;12.458;2023-04-23T10:51:36;3.78;;;1.42;;
65033;SDS011;51601;51.356;12.458;2023-04-23T10:56:06;4.28;;;1.70;;
65033;SDS011;51601;51.356;12.458;2023-04-23T11:00:41;3.75;;;1.48;;
65033;SDS011;51601;51.356;12.458;2023-04-23T11:05:07;4.53;;;1.60;;
65033;SDS011;51601;51.356;12.458;2023-04-23T11:09:39;4.15;;;1.80;;
65033;SDS011;51601;51.356;12.458;2023-04-23T11:14:10;4.80;;;2.00;;
65033;SDS011;51601;51.356;12.458;2023-04-23T11:23:30;4.80;;;2.20;;
65033;SDS011;51601;51.356;12.458;2023-04-23T11:27:56;4.72;;;2.13;;
65033;SDS011;51601;51.356;12.458;2023-04-23T11:32:20;5.07;;;2.40;;
65033;SDS011;51601;51.356;12.458;2023-04-23T11:36:45;5.20;;;2.40;;
65033;SDS011;51601;51.356;12.458;2023-04-23T11:41:13;4.10;;;1.90;;
65033;SDS011;51601;51.356;12.458;2023-04-23T11:45:40;4.40;;;2.10;;
65033;SDS011;51601;51.356;12.458;2023-04-23T11:50:04;4.50;;;1.70;;
65033;SDS011;51601;51.356;12.458;2023-04-23T11:54:32;3.92;;;1.70;;
65033;SDS011;51601;51.356;12.458;2023-04-23T11:58:59;3.88;;;1.60;;
65033;SDS011;51601;51.356;12.458;2023-04-23T12:03:26;4.20;;;2.00;;
65033;SDS011;51601;51.356;12.458;2023-04-23T12:07:51;5.25;;;1.60;;
65033;SDS011;51601;51.356;12.458;2023-04-23T12:12:15;4.35;;;1.70;;
65033;SDS011;51601;51.356;12.458;2023-04-23T12:16:40;5.40;;;2.00;;
65033;SDS011;51601;51.356;12.458;2023-04-23T12:21:06;5.25;;;2.10;;
65033;SDS011;51601;51.356;12.458;2023-04-23T12:25:32;5.30;;;2.40;;
65033;SDS011;51601;51.356;12.458;2023-04-23T12:29:59;4.60;;;1.80;;
65033;SDS011;51601;51.356;12.458;2023-04-23T12:34:26;4.53;;;1.77;;
65033;SDS011;51601;51.356;12.458;2023-04-23T12:38:51;4.20;;;1.52;;
65033;SDS011;51601;51.356;12.458;2023-04-23T12:43:15;4.18;;;1.70;;
65033;SDS011;51601;51.356;12.458;2023-04-23T12:47:39;4.33;;;1.67;;
65033;SDS011;51601;51.356;12.458;2023-04-23T12:52:03;4.70;;;1.70;;
65033;SDS011;51601;51.356;12.458;2023-04-23T12:56:32;4.50;;;2.00;;
65033;SDS011;51601;51.356;12.458;2023-04-23T13:00:57;4.47;;;1.93;;
65033;SDS011;51601;51.356;12.458;2023-04-23T13:05:21;4.25;;;2.00;;
65033;SDS011;51601;51.356;12.458;2023-04-23T13:09:45;5.03;;;1.80;;
65033;SDS011;51601;51.356;12.458;2023-04-23T13:14:11;4.25;;;1.80;;
65033;SDS011;51601;51.356;12.458;2023-04-23T13:18:28;4.93;;;1.60;;
65033;SDS011;51601;51.356;12.458;2023-04-23T13:22:52;4.80;;;1.70;;
65033;SDS011;51601;51.356;12.458;2023-04-23T13:27:17;4.45;;;1.88;;
65033;SDS011;51601;51.356;12.458;2023-04-23T13:31:42;4.57;;;1.93;;
65033;SDS011;51601;51.356;12.458;2023-04-23T13:36:06;4.35;;;1.70;;
65033;SDS011;51601;51.356;12.458;2023-04-23T13:40:33;4.20;;;1.55;;
65033;SDS011;51601;51.356;12.458;2023-04-23T13:44:57;4.53;;;1.70;;
65033;SDS011;51601;51.356;12.458;2023-04-23T13:49:41;5.03;;;1.80;;
65033;SDS011;51601;51.356;12.458;2023-04-23T13:54:26;4.45;;;1.60;;
65033;SDS011;51601;51.356;12.458;2023-04-23T13:59:10;4.40;;;1.90;;
65033;SDS011;51601;51.356;12.458;2023-04-23T14:04:01;3.90;;;1.63;;
65033;SDS011;51601;51.356;12.458;2023-04-23T14:08:48;4.72;;;1.80;;
65033;SDS011;51601;51.356;12.458;2023-04-23T14:13:32;4.47;;;1.70;;
65033;SDS011;51601;51.356;12.458;2023-04-23T14:18:16;4.57;;;1.80;;
65033;SDS011;51601;51.356;12.458;2023-04-23T14:23:02;4.28;;;1.90;;
65033;SDS011;51601;51.356;12.458;2023-04-23T14:27:55;5.03;;;2.00;;
65033;SDS011;51601;51.356;12.458;2023-04-23T14:32:44;4.20;;;1.70;;
65033;SDS011;51601;51.356;12.458;2023-04-23T14:37:31;4.32;;;1.90;;
65033;SDS011;51601;51.356;12.458;2023-04-23T14:42:16;6.20;;;1.80;;
65033;SDS011;51601;51.356;12.458;2023-04-23T14:47:02;4.00;;;1.77;;
65033;SDS011;51601;51.356;12.458;2023-04-23T14:51:48;4.27;;;1.80;;
65033;SDS011;51601;51.356;12.458;2023-04-23T14:56:35;4.43;;;1.75;;
65033;SDS011;51601;51.356;12.458;2023-04-23T15:01:19;5.50;;;1.75;;
65033;SDS011;51601;51.356;12.458;2023-04-23T15:06:06;5.00;;;1.97;;
65033;SDS011;51601;51.356;12.458;2023-04-23T15:10:50;5.38;;;1.90;;
65033;SDS011;51601;51.356;12.458;2023-04-23T15:15:35;5.22;;;1.88;;
65033;SDS011;51601;51.356;12.458;2023-04-23T15:20:26;4.47;;;1.97;;
65033;SDS011;51601;51.356;12.458;2023-04-23T15:25:12;4.78;;;2.03;;
65033;SDS011;51601;51.356;12.458;2023-04-23T15:29:57;5.03;;;2.28;;
65033;SDS011;51601;51.356;12.458;2023-04-23T15:34:42;5.45;;;1.85;;
65033;SDS011;51601;51.356;12.458;2023-04-23T15:39:26;4.33;;;1.77;;
65033;SDS011;51601;51.356;12.458;2023-04-23T15:44:12;4.25;;;1.92;;
65033;SDS011;51601;51.356;12.458;2023-04-23T15:48:57;5.00;;;1.92;;
65033;SDS011;51601;51.356;12.458;2023-04-23T15:53:41;4.83;;;2.00;;
65033;SDS011;51601;51.356;12.458;2023-04-23T15:58:25;5.28;;;1.90;;
65033;SDS011;51601;51.356;12.458;2023-04-23T16:03:11;4.82;;;1.90;;
65033;SDS011;51601;51.356;12.458;2023-04-23T16:07:56;5.23;;;1.93;;
65033;SDS011;51601;51.356;12.458;2023-04-23T16:12:41;4.93;;;1.98;;
65033;SDS011;51601;51.356;12.458;2023-04-23T16:17:27;5.03;;;2.10;;
65033;SDS011;51601;51.356;12.458;2023-04-23T16:22:12;4.50;;;2.10;;
65033;SDS011;51601;51.356;12.458;2023-04-23T16:26:58;4.83;;;2.00;;
65033;SDS011;51601;51.356;12.458;2023-04-23T16:31:43;4.63;;;1.90;;
65033;SDS011;51601;51.356;12.458;2023-04-23T16:36:27;5.43;;;2.15;;
65033;SDS011;51601;51.356;12.458;2023-04-23T16:41:15;4.37;;;1.60;;
65033;SDS011;51601;51.356;12.458;2023-04-23T16:46:00;4.00;;;1.73;;
65033;SDS011;51601;51.356;12.458;2023-04-23T16:50:45;4.15;;;1.60;;
65033;SDS011;51601;51.356;12.458;2023-04-23T16:55:29;4.03;;;1.90;;
65033;SDS011;51601;51.356;12.458;2023-04-23T17:00:15;4.90;;;1.90;;
65033;SDS011;51601;51.356;12.458;2023-04-23T17:05:00;4.38;;;1.98;;
65033;SDS011;51601;51.356;12.458;2023-04-23T17:09:53;5.10;;;1.90;;
65033;SDS011;51601;51.356;12.458;2023-04-23T17:14:37;5.00;;;2.20;;
65033;SDS011;51601;51.356;12.458;2023-04-23T17:19:23;4.72;;;1.90;;
65033;SDS011;51601;51.356;12.458;2023-04-23T17:24:09;4.85;;;1.75;;
65033;SDS011;51601;51.356;12.458;2023-04-23T17:28:57;4.73;;;1.90;;
65033;SDS011;51601;51.356;12.458;2023-04-23T17:33:52;5.30;;;1.80;;
65033;SDS011;51601;51.356;12.458;2023-04-23T17:38:42;5.47;;;2.10;;
65033;SDS011;51601;51.356;12.458;2023-04-23T17:43:40;5.40;;;2.40;;
65033;SDS011;51601;51.356;12.458;2023-04-23T17:48:24;5.55;;;2.40;;
65033;SDS011;51601;51.356;12.458;2023-04-23T17:53:11;5.43;;;2.25;;
65033;SDS011;51601;51.356;12.458;2023-04-23T17:57:56;4.55;;;1.90;;
65033;SDS011;51601;51.356;12.458;2023-04-23T18:02:46;5.30;;;2.00;;
65033;SDS011;51601;51.356;12.458;2023-04-23T18:07:34;4.65;;;2.05;;
65033;SDS011;51601;51.356;12.458;2023-04-23T18:12:30;5.85;;;2.30;;
65033;SDS011;51601;51.356;12.458;2023-04-23T18:17:15;5.00;;;2.20;;
65033;SDS011;51601;51.356;12.458;2023-04-23T18:22:03;5.10;;;2.30;;
65033;SDS011;51601;51.356;12.458;2023-04-23T18:26:53;4.93;;;2.30;;
65033;SDS011;51601;51.356;12.458;2023-04-23T18:31:42;5.20;;;2.30;;
65033;SDS011;51601;51.356;12.458;2023-04-23T18:36:32;5.00;;;2.22;;
65033;SDS011;51601;51.356;12.458;2023-04-23T18:46:34;5.75;;;2.60;;
65033;SDS011;51601;51.356;12.458;2023-04-23T18:51:23;5.03;;;2.00;;
65033;SDS011;51601;51.356;12.458;2023-04-23T18:55:50;6.05;;;2.50;;
65033;SDS011;51601;51.356;12.458;2023-04-23T19:00:17;6.57;;;2.72;;
65033;SDS011;51601;51.356;12.458;2023-04-23T19:04:43;6.67;;;3.00;;
65033;SDS011;51601;51.356;12.458;2023-04-23T19:09:10;5.22;;;2.20;;
65033;SDS011;51601;51.356;12.458;2023-04-23T19:13:38;5.18;;;2.25;;
65033;SDS011;51601;51.356;12.458;2023-04-23T19:18:02;5.53;;;2.50;;
65033;SDS011;51601;51.356;12.458;2023-04-23T19:22:30;7.25;;;3.15;;
65033;SDS011;51601;51.356;12.458;2023-04-23T19:26:54;7.20;;;2.75;;
65033;SDS011;51601;51.356;12.458;2023-04-23T19:31:20;6.72;;;2.55;;
65033;SDS011;51601;51.356;12.458;2023-04-23T19:35:47;5.80;;;2.27;;
65033;SDS011;51601;51.356;12.458;2023-04-23T19:40:23;6.10;;;2.80;;
65033;SDS011;51601;51.356;12.458;2023-04-23T19:45:17;11.52;;;4.60;;
65033;SDS011;51601;51.356;12.458;2023-04-23T19:49:58;12.90;;;5.40;;
65033;SDS011;51601;51.356;12.458;2023-04-23T19:54:30;15.80;;;6.07;;
65033;SDS011;51601;51.356;12.458;2023-04-23T19:58:59;16.48;;;8.15;;
65033;SDS011;51601;51.356;12.458;2023-04-23T20:03:29;16.97;;;7.47;;
65033;SDS011;51601;51.356;12.458;2023-04-23T20:07:58;11.65;;;5.20;;
65033;SDS011;51601;51.356;12.458;2023-04-23T20:12:27;8.70;;;3.83;;
65033;SDS011;51601;51.356;12.458;2023-04-23T20:16:58;7.53;;;3.45;;
65033;SDS011;51601;51.356;12.458;2023-04-23T20:21:25;6.87;;;3.20;;
65033;SDS011;51601;51.356;12.458;2023-04-23T20:25:53;6.80;;;2.90;;
65033;SDS011;51601;51.356;12.458;2023-04-23T20:30:18;7.00;;;3.20;;
65033;SDS011;51601;51.356;12.458;2023-04-23T20:34:46;7.03;;;3.50;;
65033;SDS011;51601;51.356;12.458;2023-04-23T20:39:13;6.82;;;3.13;;
65033;SDS011;51601;51.356;12.458;2023-04-23T20:43:47;6.20;;;3.03;;
65033;SDS011;51601;51.356;12.458;2023-04-23T20:48:14;7.00;;;3.20;;
65033;SDS011;51601;51.356;12.458;2023-04-23T20:52:38;6.63;;;3.05;;
65033;SDS011;51601;51.356;12.458;2023-04-23T20:57:03;6.30;;;3.15;;
65033;SDS011;51601;51.356;12.458;2023-04-23T21:01:32;7.43;;;2.35;;
65033;SDS011;51601;51.356;12.458;2023-04-23T21:05:56;6.83;;;3.40;;
65033;SDS011;51601;51.356;12.458;2023-04-23T21:10:20;6.55;;;3.45;;
65033;SDS011;51601;51.356;12.458;2023-04-23T21:14:44;6.57;;;3.28;;
65033;SDS011;51601;51.356;12.458;2023-04-23T21:19:10;6.37;;;3.20;;
65033;SDS011;51601;51.356;12.458;2023-04-23T21:23:34;6.75;;;3.13;;
65033;SDS011;51601;51.356;12.458;2023-04-23T21:27:58;6.70;;;3.35;;
65033;SDS011;51601;51.356;12.458;2023-04-23T21:32:25;6.00;;;2.87;;
65033;SDS011;51601;51.356;12.458;2023-04-23T21:36:53;6.25;;;2.85;;
65033;SDS011;51601;51.356;12.458;2023-04-23T21:41:18;7.18;;;2.80;;
65033;SDS011;51601;51.356;12.458;2023-04-23T21:45:44;7.07;;;3.17;;
65033;SDS011;51601;51.356;12.458;2023-04-23T21:50:15;5.87;;;2.87;;
65033;SDS011;51601;51.356;12.458;2023-04-23T21:54:46;6.20;;;2.83;;
65033;SDS011;51601;51.356;12.458;2023-04-23T21:59:10;6.38;;;3.40;;
65033;SDS011;51601;51.356;12.458;2023-04-23T22:03:34;7.07;;;3.73;;
65033;SDS011;51601;51.356;12.458;2023-04-23T22:08:03;6.80;;;3.33;;
65033;SDS011;51601;51.356;12.458;2023-04-23T22:12:29;6.63;;;3.05;;
65033;SDS011;51601;51.356;12.458;2023-04-23T22:16:56;7.73;;;3.33;;
65033;SDS011;51601;51.356;12.458;2023-04-23T22:21:21;7.68;;;3.35;;
65033;SDS011;51601;51.356;12.458;2023-04-23T22:25:44;6.38;;;2.97;;
65033;SDS011;51601;51.356;12.458;2023-04-23T22:30:15;7.40;;;3.30;;
65033;SDS011;51601;51.356;12.458;2023-04-23T22:34:39;6.80;;;3.27;;
65033;SDS011;51601;51.356;12.458;2023-04-23T22:39:09;6.78;;;3.35;;
65033;SDS011;51601;51.356;12.458;2023-04-23T22:43:37;7.55;;;2.90;;
65033;SDS011;51601;51.356;12.458;2023-04-23T22:48:03;6.23;;;3.10;;
65033;SDS011;51601;51.356;12.458;2023-04-23T22:52:29;6.75;;;3.22;;
65033;SDS011;51601;51.356;12.458;2023-04-23T22:56:53;7.82;;;3.10;;
65033;SDS011;51601;51.356;12.458;2023-04-23T23:01:18;7.27;;;3.07;;
65033;SDS011;51601;51.356;12.458;2023-04-23T23:06:12;6.50;;;2.80;;
65033;SDS011;51601;51.356;12.458;2023-04-23T23:10:38;6.18;;;3.00;;
65033;SDS011;51601;51.356;12.458;2023-04-23T23:15:07;6.63;;;3.15;;
65033;SDS011;51601;51.356;12.458;2023-04-23T23:19:31;6.67;;;2.70;;
65033;SDS011;51601;51.356;12.458;2023-04-23T23:23:57;6.28;;;2.80;;
65033;SDS011;51601;51.356;12.458;2023-04-23T23:28:21;5.90;;;2.72;;
65033;SDS011;51601;51.356;12.458;2023-04-23T23:32:45;5.30;;;2.20;;
65033;SDS011;51601;51.356;12.458;2023-04-23T23:37:15;6.10;;;2.28;;
65033;SDS011;51601;51.356;12.458;2023-04-23T23:41:41;5.90;;;2.72;;
65033;SDS011;51601;51.356;12.458;2023-04-23T23:46:11;7.00;;;2.50;;
65033;SDS011;51601;51.356;12.458;2023-04-23T23:50:39;5.68;;;2.40;;
65033;SDS011;51601;51.356;12.458;2023-04-23T23:55:05;5.15;;;2.20;;
65033;SDS011;51601;51.356;12.458;2023-04-23T23:59:33;4.70;;;1.90;;
